createdAt,value
2022-12-18T00:02:07.364Z,-2.26
2022-12-18T00:04:35.305Z,-2.19
2022-12-18T00:07:03.154Z,-2.14
2022-12-18T00:09:39.846Z,-2.17
2022-12-18T00:14:46.926Z,-2.17
2022-12-18T00:17:16.139Z,-2.17
2022-12-18T00:19:44.041Z,-2.20
2022-12-18T00:22:12.021Z,-2.20
2022-12-18T00:24:39.920Z,-2.14
2022-12-18T00:27:07.921Z,-2.11
2022-12-18T00:29:35.925Z,-2.14
2022-12-18T00:32:04.105Z,-2.18
2022-12-18T00:34:33.371Z,-2.26
2022-12-18T00:37:01.293Z,-2.33
2022-12-18T00:39:29.301Z,-2.40
2022-12-18T00:42:14.467Z,-2.46
2022-12-18T00:44:42.544Z,-2.53
2022-12-18T00:47:10.456Z,-2.55
2022-12-18T00:49:39.735Z,-2.82
2022-12-18T00:52:07.502Z,-2.44
2022-12-18T00:54:35.430Z,-2.36
2022-12-18T00:57:06.206Z,-2.32
2022-12-18T00:59:34.181Z,-2.28
2022-12-18T01:02:02.033Z,-2.29
2022-12-18T01:04:34.693Z,-2.41
2022-12-18T01:07:04.011Z,-2.34
2022-12-18T01:09:32.930Z,-2.27
2022-12-18T01:12:00.839Z,-2.28
2022-12-18T01:14:29.006Z,-2.31
2022-12-18T01:16:56.761Z,-2.38
2022-12-18T01:19:25.600Z,-2.40
2022-12-18T01:21:53.421Z,-2.41
2022-12-18T01:24:22.759Z,-2.41
2022-12-18T01:26:51.048Z,-2.44
2022-12-18T01:29:19.057Z,-2.47
2022-12-18T01:31:46.946Z,-2.43
2022-12-18T01:34:14.786Z,-2.41
2022-12-18T01:36:43.302Z,-2.43
2022-12-18T01:39:13.679Z,-2.47
2022-12-18T01:42:02.375Z,-2.51
2022-12-18T01:44:57.958Z,-2.53
2022-12-18T01:47:29.390Z,-2.52
2022-12-18T01:49:58.876Z,-2.51
2022-12-18T01:52:30.213Z,-2.52
2022-12-18T01:54:58.648Z,-2.54
2022-12-18T01:57:30.041Z,-2.50
2022-12-18T02:00:02.480Z,-2.58
2022-12-18T02:02:42.190Z,-2.57
2022-12-18T02:05:12.187Z,-2.52
2022-12-18T02:07:46.522Z,-2.53
2022-12-18T02:10:20.469Z,-2.58
2022-12-18T02:12:58.520Z,-2.64
2022-12-18T02:15:33.776Z,-2.71
2022-12-18T02:18:08.489Z,-2.72
2022-12-18T02:20:41.985Z,-2.77
2022-12-18T02:23:20.894Z,-2.80
2022-12-18T02:26:09.666Z,-2.79
2022-12-18T02:28:44.258Z,-2.80
2022-12-18T02:31:17.797Z,-2.81
2022-12-18T02:33:47.183Z,-2.86
2022-12-18T02:36:18.303Z,-2.87
2022-12-18T02:38:47.959Z,-2.89
2022-12-18T02:41:20.418Z,-2.87
2022-12-18T02:43:49.574Z,-2.93
2022-12-18T02:46:34.277Z,-2.86
2022-12-18T02:49:18.327Z,-2.88
2022-12-18T02:51:54.672Z,-2.90
2022-12-18T02:54:35.797Z,-2.93
2022-12-18T02:57:15.346Z,-2.89
2022-12-18T02:59:50.571Z,-2.87
2022-12-18T03:02:24.210Z,-2.84
2022-12-18T03:05:01.455Z,-2.85
2022-12-18T03:07:41.266Z,-2.91
2022-12-18T03:10:16.522Z,-2.92
2022-12-18T03:12:51.954Z,-2.97
2022-12-18T03:15:25.418Z,-3.02
2022-12-18T03:18:05.409Z,-3.08
2022-12-18T03:20:36.319Z,-3.07
2022-12-18T03:23:09.155Z,-3.10
2022-12-18T03:25:41.785Z,-3.11
2022-12-18T03:28:15.064Z,-3.10
2022-12-18T03:30:46.712Z,-3.08
2022-12-18T03:33:20.636Z,-3.08
2022-12-18T03:35:51.155Z,-3.10
2022-12-18T03:38:20.612Z,-3.15
2022-12-18T03:41:01.464Z,-3.14
2022-12-18T03:43:45.821Z,-3.16
2022-12-18T03:46:24.510Z,-3.16
2022-12-18T03:48:58.290Z,-3.15
2022-12-18T03:51:30.550Z,-3.14
2022-12-18T03:54:02.176Z,-3.15
2022-12-18T03:56:39.296Z,-3.20
2022-12-18T03:59:12.105Z,-3.27
2022-12-18T04:01:43.923Z,-3.26
2022-12-18T04:04:16.686Z,-3.29
2022-12-18T04:06:47.885Z,-3.32
2022-12-18T04:09:16.806Z,-3.33
2022-12-18T04:11:48.309Z,-3.36
2022-12-18T04:14:19.120Z,-3.34
2022-12-18T04:16:50.916Z,-3.35
2022-12-18T04:19:22.714Z,-3.33
2022-12-18T04:21:52.329Z,-3.33
2022-12-18T04:24:20.391Z,-3.34
2022-12-18T04:27:05.031Z,-3.38
2022-12-18T04:29:41.913Z,-3.38
2022-12-18T04:32:10.296Z,-3.39
2022-12-18T04:34:39.137Z,-3.39
2022-12-18T04:37:07.057Z,-3.39
2022-12-18T04:39:34.917Z,-3.37
2022-12-18T04:42:08.198Z,-3.38
2022-12-18T04:44:36.223Z,-3.40
2022-12-18T04:47:05.768Z,-3.59
2022-12-18T04:49:33.572Z,-3.43
2022-12-18T04:52:01.416Z,-3.48
2022-12-18T04:54:29.988Z,-3.47
2022-12-18T04:56:57.900Z,-3.54
2022-12-18T04:59:25.739Z,-3.48
2022-12-18T05:01:53.554Z,-3.47
2022-12-18T05:04:23.282Z,-3.47
2022-12-18T05:06:51.199Z,-3.48
2022-12-18T05:09:19.052Z,-3.50
2022-12-18T05:11:47.644Z,-3.54
2022-12-18T05:14:15.410Z,-3.54
2022-12-18T05:16:43.282Z,-3.53
2022-12-18T05:19:11.913Z,-3.52
2022-12-18T05:21:41.420Z,-3.53
2022-12-18T05:24:09.390Z,-3.61
2022-12-18T05:26:37.298Z,-3.62
2022-12-18T05:29:05.193Z,-3.69
2022-12-18T05:31:38.868Z,-3.70
2022-12-18T05:34:07.639Z,-3.72
2022-12-18T05:36:35.412Z,-3.76
2022-12-18T05:39:05.059Z,-3.78
2022-12-18T05:41:34.019Z,-3.83
2022-12-18T05:44:03.255Z,-3.89
2022-12-18T05:46:31.462Z,-4.00
2022-12-18T05:49:01.482Z,-4.00
2022-12-18T05:51:29.824Z,-3.93
2022-12-18T05:53:57.658Z,-3.89
2022-12-18T05:56:27.057Z,-3.89
2022-12-18T05:58:55.790Z,-3.88
2022-12-18T06:01:26.211Z,-3.89
2022-12-18T06:03:54.422Z,-3.94
2022-12-18T06:06:24.791Z,-4.08
2022-12-18T06:08:53.154Z,-4.05
2022-12-18T06:11:23.408Z,-4.11
2022-12-18T06:13:58.238Z,-4.09
2022-12-18T06:16:27.521Z,-4.21
2022-12-18T06:18:55.508Z,-4.12
2022-12-18T06:21:23.427Z,-4.09
2022-12-18T06:23:51.260Z,-4.15
2022-12-18T06:26:22.138Z,-4.23
2022-12-18T06:28:55.523Z,-4.37
2022-12-18T06:31:23.435Z,-4.56
2022-12-18T06:33:51.464Z,-4.70
2022-12-18T06:36:19.411Z,-4.55
2022-12-18T06:38:47.304Z,-4.56
2022-12-18T06:41:17.546Z,-4.63
2022-12-18T06:43:46.111Z,-4.71
2022-12-18T06:46:15.412Z,-4.81
2022-12-18T06:48:43.579Z,-4.73
2022-12-18T06:51:11.369Z,-4.67
2022-12-18T06:53:40.106Z,-4.68
2022-12-18T06:56:10.913Z,-4.82
2022-12-18T06:58:39.703Z,-4.81
2022-12-18T07:01:09.920Z,-4.75
2022-12-18T07:03:39.882Z,-4.63
2022-12-18T07:06:14.281Z,-4.58
2022-12-18T07:08:42.144Z,-4.39
2022-12-18T07:11:10.053Z,-4.27
2022-12-18T07:13:38.283Z,-4.19
2022-12-18T07:16:14.410Z,-4.20
2022-12-18T07:18:46.832Z,-4.36
2022-12-18T07:21:16.735Z,-4.38
2022-12-18T07:23:45.790Z,-4.35
2022-12-18T07:26:14.953Z,-4.27
2022-12-18T07:28:44.140Z,-4.17
2022-12-18T07:31:14.310Z,-4.10
2022-12-18T07:33:43.062Z,-4.15
2022-12-18T07:36:13.368Z,-4.22
2022-12-18T07:38:41.532Z,-4.31
2022-12-18T07:41:11.729Z,-4.23
2022-12-18T07:43:40.934Z,-4.15
2022-12-18T07:46:12.751Z,-4.07
2022-12-18T07:48:42.197Z,-4.12
2022-12-18T07:51:14.382Z,-4.04
2022-12-18T07:53:43.689Z,-3.97
2022-12-18T07:56:31.116Z,-3.89
2022-12-18T07:59:00.115Z,-3.77
2022-12-18T08:01:28.671Z,-3.73
2022-12-18T08:03:56.744Z,-3.81
2022-12-18T08:06:26.022Z,-3.74
2022-12-18T08:08:54.848Z,-3.77
2022-12-18T08:11:22.932Z,-3.72
2022-12-18T08:13:50.824Z,-3.71
2022-12-18T08:16:19.674Z,-3.63
2022-12-18T08:18:48.650Z,-3.59
2022-12-18T08:21:19.189Z,-3.66
2022-12-18T08:23:51.805Z,-3.65
2022-12-18T08:26:21.002Z,-3.58
2022-12-18T08:28:50.157Z,-3.51
2022-12-18T08:31:19.492Z,-3.51
2022-12-18T08:33:49.908Z,-3.51
2022-12-18T08:36:18.132Z,-3.44
2022-12-18T08:38:46.054Z,-3.45
2022-12-18T08:41:16.937Z,-3.38
2022-12-18T08:44:02.598Z,-3.32
2022-12-18T08:46:35.951Z,-3.27
2022-12-18T08:49:05.095Z,-3.21
2022-12-18T08:51:33.301Z,-3.22
2022-12-18T08:54:01.180Z,-3.15
2022-12-18T08:56:30.944Z,-3.15
2022-12-18T08:58:59.437Z,-3.18
2022-12-18T09:01:27.749Z,-3.14
2022-12-18T09:03:55.751Z,-3.18
2022-12-18T09:06:24.578Z,-3.03
2022-12-18T09:08:52.417Z,-3.00
2022-12-18T09:11:22.955Z,-2.98
2022-12-18T09:13:52.870Z,-3.01
2022-12-18T09:16:22.035Z,-2.98
2022-12-18T09:18:51.867Z,-2.91
2022-12-18T09:21:21.558Z,-2.90
2022-12-18T09:23:51.968Z,-2.85
2022-12-18T09:26:19.842Z,-2.81
2022-12-18T09:28:47.986Z,-2.82
2022-12-18T09:31:19.784Z,-2.75
2022-12-18T09:33:47.692Z,-2.67
2022-12-18T09:36:17.918Z,-2.63
2022-12-18T09:38:46.493Z,-2.72
2022-12-18T09:41:35.845Z,-2.94
2022-12-18T09:44:07.528Z,-2.91
2022-12-18T09:46:41.441Z,-2.91
2022-12-18T09:49:15.446Z,-2.84
2022-12-18T09:51:48.309Z,-2.85
2022-12-18T09:54:20.608Z,-2.84
2022-12-18T09:56:48.957Z,-2.87
2022-12-18T09:59:23.123Z,-2.81
2022-12-18T10:01:52.585Z,-2.74
2022-12-18T10:04:20.695Z,-2.69
2022-12-18T10:06:56.508Z,-2.62
2022-12-18T10:09:30.754Z,-2.52
2022-12-18T10:12:09.490Z,-2.43
2022-12-18T10:14:45.373Z,-2.52
2022-12-18T10:17:27.575Z,-2.39
2022-12-18T10:20:01.511Z,-2.33
2022-12-18T10:22:47.931Z,-2.28
2022-12-18T10:25:22.575Z,-2.26
2022-12-18T10:27:54.687Z,-2.24
2022-12-18T10:30:24.945Z,-2.14
2022-12-18T10:32:55.169Z,-2.17
2022-12-18T10:35:28.126Z,-2.17
2022-12-18T10:38:07.521Z,-2.12
2022-12-18T10:40:51.507Z,-2.07
2022-12-18T10:43:24.057Z,-2.10
2022-12-18T10:46:02.748Z,-2.11
2022-12-18T10:48:34.038Z,-2.13
2022-12-18T10:51:10.913Z,-2.15
2022-12-18T10:53:44.534Z,-2.13
2022-12-18T10:56:13.014Z,-2.05
2022-12-18T10:58:41.822Z,-2.00
2022-12-18T11:01:13.210Z,-2.04
2022-12-18T11:03:44.575Z,-2.08
2022-12-18T11:06:14.800Z,-2.03
2022-12-18T11:08:44.345Z,-1.96
2022-12-18T11:11:21.493Z,-1.90
2022-12-18T11:14:00.024Z,-1.98
2022-12-18T11:16:35.388Z,-1.85
2022-12-18T11:19:23.615Z,-1.83
2022-12-18T11:21:51.624Z,-1.77
2022-12-18T11:24:27.047Z,-1.73
2022-12-18T11:26:59.702Z,-1.70
2022-12-18T11:29:34.572Z,-1.67
2022-12-18T11:32:25.937Z,-1.64
2022-12-18T11:35:04.079Z,-1.64
2022-12-18T11:37:34.841Z,-1.64
2022-12-18T11:40:09.088Z,-1.62
2022-12-18T11:42:43.463Z,-1.59
2022-12-18T11:45:26.995Z,-1.57
2022-12-18T11:48:00.974Z,-1.54
2022-12-18T11:50:35.903Z,-1.50
2022-12-18T11:53:06.375Z,-1.48
2022-12-18T11:55:43.434Z,-1.46
2022-12-18T11:58:22.466Z,-1.47
2022-12-18T12:01:02.308Z,-1.45
2022-12-18T12:03:49.664Z,-1.44
2022-12-18T12:06:27.346Z,-1.41
2022-12-18T12:09:06.282Z,-1.39
2022-12-18T12:11:45.152Z,-1.37
2022-12-18T12:14:43.013Z,-1.34
2022-12-18T12:17:19.384Z,-1.31
2022-12-18T12:19:53.588Z,-1.26
2022-12-18T12:22:31.113Z,-1.22
2022-12-18T12:25:13.491Z,-1.19
2022-12-18T12:27:52.215Z,-1.16
2022-12-18T12:30:23.078Z,-1.15
2022-12-18T12:33:06.877Z,-1.03
2022-12-18T12:35:48.784Z,-0.98
2022-12-18T12:38:23.041Z,-0.92
2022-12-18T12:41:02.489Z,-0.87
2022-12-18T12:43:39.148Z,-0.79
2022-12-18T12:46:12.885Z,-0.72
2022-12-18T12:48:45.455Z,-0.64
2022-12-18T12:51:18.398Z,-0.57
2022-12-18T12:53:48.198Z,-0.50
2022-12-18T12:56:18.924Z,-0.43
2022-12-18T12:58:58.329Z,-0.35
2022-12-18T13:01:36.047Z,-0.27
2022-12-18T13:04:17.708Z,-0.20
2022-12-18T13:06:52.380Z,-0.18
2022-12-18T13:09:21.985Z,-0.03
2022-12-18T13:12:08.188Z,0.05
2022-12-18T13:14:38.914Z,0.13
2022-12-18T13:17:31.153Z,0.18
2022-12-18T13:20:08.996Z,0.27
2022-12-18T13:22:38.986Z,0.36
2022-12-18T13:25:31.390Z,0.43
2022-12-18T13:28:05.367Z,0.47
2022-12-18T13:30:58.136Z,0.50
2022-12-18T13:33:51.086Z,0.52
2022-12-18T13:36:31.268Z,0.53
2022-12-18T13:39:32.707Z,0.58
2022-12-18T13:42:57.251Z,0.64
2022-12-18T13:45:43.762Z,0.61
2022-12-18T13:48:20.319Z,0.77
2022-12-18T13:50:54.018Z,0.83
2022-12-18T13:53:25.739Z,0.84
2022-12-18T13:55:54.026Z,0.84
2022-12-18T13:58:21.788Z,0.82
2022-12-18T14:00:52.362Z,0.74
2022-12-18T14:03:24.069Z,0.72
2022-12-18T14:06:02.852Z,0.73
2022-12-18T14:08:37.912Z,0.72
2022-12-18T14:11:07.892Z,0.71
2022-12-18T14:13:41.353Z,0.71
2022-12-18T14:16:16.297Z,0.67
2022-12-18T14:18:48.507Z,0.65
2022-12-18T14:21:22.818Z,0.58
2022-12-18T14:24:04.300Z,0.34
2022-12-18T14:26:34.223Z,0.44
2022-12-18T14:29:16.331Z,0.39
2022-12-18T14:31:46.603Z,0.32
2022-12-18T14:34:17.908Z,0.28
2022-12-18T14:36:54.840Z,0.17
2022-12-18T14:39:23.185Z,-0.01
2022-12-18T14:41:51.873Z,0.02
2022-12-18T14:44:19.703Z,-0.09
2022-12-18T14:46:50.014Z,-0.21
2022-12-18T14:49:24.634Z,-0.45
2022-12-18T14:51:55.128Z,-0.48
2022-12-18T14:54:25.338Z,-0.57
2022-12-18T14:56:58.689Z,-0.65
2022-12-18T14:59:28.191Z,-0.72
2022-12-18T15:02:06.032Z,-0.79
2022-12-18T15:04:36.552Z,-0.85
2022-12-18T15:07:08.068Z,-0.91
2022-12-18T15:09:36.036Z,-1.18
2022-12-18T15:12:04.576Z,-1.02
2022-12-18T15:14:40.348Z,-1.09
2022-12-18T15:17:19.631Z,-1.17
2022-12-18T15:19:49.667Z,-1.14
2022-12-18T15:22:27.576Z,-1.19
2022-12-18T15:24:56.578Z,-1.24
2022-12-18T15:27:28.254Z,-1.28
2022-12-18T15:30:19.020Z,-1.32
2022-12-18T15:32:48.691Z,-1.36
2022-12-18T15:35:20.217Z,-1.38
2022-12-18T15:37:48.356Z,-1.42
2022-12-18T15:40:17.880Z,-1.42
2022-12-18T15:43:05.185Z,-1.58
2022-12-18T15:45:33.146Z,-1.55
2022-12-18T15:48:02.494Z,-1.61
2022-12-18T15:50:30.477Z,-1.70
2022-12-18T15:52:58.892Z,-1.77
2022-12-18T15:55:44.097Z,-1.77
2022-12-18T15:58:12.911Z,-1.78
2022-12-18T16:00:42.539Z,-1.81
2022-12-18T16:03:12.181Z,-1.84
2022-12-18T16:05:40.290Z,-1.89
2022-12-18T16:08:08.129Z,-1.91
2022-12-18T16:10:37.065Z,-1.95
2022-12-18T16:13:04.902Z,-1.98
2022-12-18T16:15:32.698Z,-1.98
2022-12-18T16:18:00.504Z,-1.99
2022-12-18T16:20:29.647Z,-2.02
2022-12-18T16:22:57.431Z,-2.02
2022-12-18T16:25:28.076Z,-2.03
2022-12-18T16:27:57.197Z,-2.00
2022-12-18T16:30:28.569Z,-2.03
2022-12-18T16:32:59.871Z,-2.10
2022-12-18T16:35:29.124Z,-2.08
2022-12-18T16:37:57.116Z,-2.08
2022-12-18T16:40:25.637Z,-2.06
2022-12-18T16:42:53.548Z,-2.06
2022-12-18T16:45:21.485Z,-2.05
2022-12-18T16:47:50.342Z,-2.05
2022-12-18T16:50:18.264Z,-2.06
2022-12-18T16:52:47.428Z,-2.09
2022-12-18T16:55:15.336Z,-2.16
2022-12-18T16:57:43.188Z,-2.30
2022-12-18T17:00:12.603Z,-2.24
2022-12-18T17:02:40.767Z,-2.24
2022-12-18T17:05:09.075Z,-2.27
2022-12-18T17:07:37.034Z,-2.31
2022-12-18T17:10:07.524Z,-2.35
2022-12-18T17:12:35.774Z,-2.38
2022-12-18T17:15:03.872Z,-2.41
2022-12-18T17:17:31.703Z,-2.38
2022-12-18T17:19:59.663Z,-2.35
2022-12-18T17:22:28.046Z,-2.36
2022-12-18T17:24:55.959Z,-2.35
2022-12-18T17:27:25.151Z,-2.35
2022-12-18T17:29:52.954Z,-2.46
2022-12-18T17:32:20.771Z,-2.55
2022-12-18T17:34:48.726Z,-2.59
2022-12-18T17:37:16.823Z,-2.68
2022-12-18T17:39:44.656Z,-2.57
2022-12-18T17:42:15.288Z,-2.51
2022-12-18T17:44:45.760Z,-2.49
2022-12-18T17:47:14.132Z,-2.60
2022-12-18T17:49:42.027Z,-2.47
2022-12-18T17:52:10.350Z,-2.49
2022-12-18T17:54:39.743Z,-2.46
2022-12-18T17:57:07.820Z,-2.48
2022-12-18T17:59:35.774Z,-2.53
2022-12-18T18:02:05.142Z,-2.52
2022-12-18T18:04:33.140Z,-2.54
2022-12-18T18:07:00.973Z,-2.57
2022-12-18T18:09:28.977Z,-2.60
2022-12-18T18:12:14.979Z,-2.67
2022-12-18T18:14:42.937Z,-2.77
2022-12-18T18:17:12.719Z,-2.85
2022-12-18T18:19:42.069Z,-2.90
2022-12-18T18:22:11.785Z,-2.93
2022-12-18T18:24:39.817Z,-2.96
2022-12-18T18:27:07.696Z,-2.94
2022-12-18T18:29:36.402Z,-2.91
2022-12-18T18:32:04.877Z,-2.89
2022-12-18T18:34:34.238Z,-2.89
2022-12-18T18:37:02.996Z,-2.85
2022-12-18T18:39:31.358Z,-2.94
2022-12-18T18:42:00.887Z,-2.84
2022-12-18T18:44:30.572Z,-2.85
2022-12-18T18:46:59.367Z,-2.88
2022-12-18T18:49:28.511Z,-2.88
2022-12-18T18:51:59.185Z,-2.92
2022-12-18T18:54:27.579Z,-2.97
2022-12-18T18:57:19.376Z,-2.87
2022-12-18T18:59:43.421Z,-2.90
2022-12-18T19:02:13.578Z,-2.99
2022-12-18T19:04:46.047Z,-3.13
2022-12-18T19:07:18.554Z,-3.15
2022-12-18T19:09:58.143Z,-3.12
2022-12-18T19:12:50.825Z,-3.10
2022-12-18T19:15:18.661Z,-3.06
2022-12-18T19:17:47.097Z,-3.05
2022-12-18T19:20:15.743Z,-3.14
2022-12-18T19:22:49.705Z,-3.08
2022-12-18T19:25:37.564Z,-3.38
2022-12-18T19:28:18.214Z,-3.28
2022-12-18T19:30:55.359Z,-3.28
2022-12-18T19:33:44.646Z,-3.31
2022-12-18T19:36:15.535Z,-3.31
2022-12-18T19:38:45.573Z,-3.30
2022-12-18T19:41:15.214Z,-3.36
2022-12-18T19:43:43.412Z,-3.48
2022-12-18T19:46:15.168Z,-3.33
2022-12-18T19:48:45.063Z,-3.33
2022-12-18T19:51:16.575Z,-3.31
2022-12-18T19:53:46.602Z,-3.37
2022-12-18T19:56:16.187Z,-3.39
2022-12-18T19:58:45.149Z,-3.37
2022-12-18T20:01:13.542Z,-3.38
2022-12-18T20:03:46.965Z,-3.48
2022-12-18T20:06:24.729Z,-3.34
2022-12-18T20:08:57.989Z,-3.34
2022-12-18T20:11:28.966Z,-3.40
2022-12-18T20:13:57.214Z,-3.32
2022-12-18T20:16:25.622Z,-3.36
2022-12-18T20:18:53.648Z,-3.42
2022-12-18T20:21:21.740Z,-3.49
2022-12-18T20:23:49.628Z,-3.48
2022-12-18T20:26:19.315Z,-3.55
2022-12-18T20:28:47.282Z,-3.59
2022-12-18T20:31:15.337Z,-3.66
2022-12-18T20:33:44.575Z,-3.66
2022-12-18T20:36:20.155Z,-3.64
2022-12-18T20:38:51.528Z,-3.72
2022-12-18T20:41:24.377Z,-3.70
2022-12-18T20:43:52.348Z,-3.69
2022-12-18T20:46:20.494Z,-3.63
2022-12-18T20:48:48.746Z,-3.66
2022-12-18T20:51:18.837Z,-3.60
2022-12-18T20:53:47.770Z,-3.53
2022-12-18T20:56:20.828Z,-3.45
2022-12-18T20:58:53.664Z,-3.33
2022-12-18T21:01:24.886Z,-3.24
2022-12-18T21:03:53.530Z,-3.21
2022-12-18T21:06:23.600Z,-3.27
2022-12-18T21:08:51.596Z,-3.35
2022-12-18T21:11:45.564Z,-3.49
2022-12-18T21:14:17.797Z,-3.57
2022-12-18T21:16:46.626Z,-3.68
2022-12-18T21:19:18.746Z,-3.49
2022-12-18T21:21:47.629Z,-3.65
2022-12-18T21:24:16.361Z,-3.75
2022-12-18T21:26:46.319Z,-3.81
2022-12-18T21:29:17.811Z,-3.90
2022-12-18T21:31:46.370Z,-3.98
2022-12-18T21:34:17.005Z,-4.06
2022-12-18T21:36:45.025Z,-4.11
2022-12-18T21:39:14.434Z,-4.09
2022-12-18T21:41:59.955Z,-3.97
2022-12-18T21:44:29.546Z,-3.96
2022-12-18T21:47:04.582Z,-4.09
2022-12-18T21:49:37.374Z,-4.24
2022-12-18T21:52:05.610Z,-4.30
2022-12-18T21:54:33.517Z,-4.33
2022-12-18T21:57:03.030Z,-4.31
2022-12-18T21:59:34.719Z,-4.31
2022-12-18T22:02:05.058Z,-4.30
2022-12-18T22:04:33.183Z,-4.22
2022-12-18T22:07:02.580Z,-4.12
2022-12-18T22:09:30.448Z,-3.99
2022-12-18T22:11:59.068Z,-3.99
2022-12-18T22:14:27.188Z,-3.80
2022-12-18T22:16:57.500Z,-3.73
2022-12-18T22:19:26.584Z,-3.74
2022-12-18T22:21:55.267Z,-3.74
2022-12-18T22:24:26.233Z,-3.74
2022-12-18T22:27:01.782Z,-3.85
2022-12-18T22:29:44.069Z,-3.65
2022-12-18T22:32:17.820Z,-3.63
2022-12-18T22:35:04.882Z,-3.61
2022-12-18T22:37:34.054Z,-3.61
2022-12-18T22:40:03.075Z,-3.66
2022-12-18T22:42:32.534Z,-3.66
2022-12-18T22:45:00.671Z,-3.62
2022-12-18T22:47:30.813Z,-3.56
2022-12-18T22:49:59.396Z,-3.55
2022-12-18T22:52:27.243Z,-3.54
2022-12-18T22:54:55.302Z,-3.58
2022-12-18T22:57:23.784Z,-3.73
2022-12-18T22:59:52.166Z,-3.67
2022-12-18T23:02:20.790Z,-3.70
2022-12-18T23:04:50.161Z,-3.75
2022-12-18T23:07:18.143Z,-3.80
2022-12-18T23:09:46.118Z,-3.87
2022-12-18T23:12:17.816Z,-3.99
2022-12-18T23:14:47.199Z,-4.03
2022-12-18T23:17:15.199Z,-3.99
2022-12-18T23:19:48.779Z,-3.98
2022-12-18T23:22:18.642Z,-3.99
2022-12-18T23:24:47.425Z,-3.93
2022-12-18T23:27:15.354Z,-4.04
2022-12-18T23:29:43.437Z,-4.16
2022-12-18T23:32:13.540Z,-4.15
2022-12-18T23:34:41.490Z,-4.16
2022-12-18T23:37:09.505Z,-4.26
2022-12-18T23:39:38.847Z,-4.26
2022-12-18T23:42:06.948Z,-4.21
2022-12-18T23:44:35.021Z,-4.24
2022-12-18T23:47:04.559Z,-4.30
2022-12-18T23:49:32.668Z,-4.35
2022-12-18T23:52:00.599Z,-4.31
2022-12-18T23:54:32.878Z,-4.27
2022-12-18T23:57:02.790Z,-4.34
2022-12-18T23:59:30.734Z,-4.24
